createdAt,value
2023-09-23T00:09:19.399Z,94.5
2023-09-23T00:19:25.992Z,94.5
2023-09-23T00:29:31.740Z,95
2023-09-23T00:39:38.096Z,94.5
2023-09-23T00:49:44.786Z,94
2023-09-23T00:59:51.258Z,94.5
2023-09-23T01:09:57.658Z,95
2023-09-23T01:20:04.323Z,95.5
2023-09-23T01:30:10.788Z,95.5
2023-09-23T01:40:17.420Z,95.5
2023-09-23T01:50:23.892Z,95.5
2023-09-23T02:00:30.469Z,95.5
2023-09-23T02:10:36.782Z,95
2023-09-23T02:20:43.510Z,95
2023-09-23T02:30:49.911Z,94.5
2023-09-23T02:40:56.415Z,94
2023-09-23T02:51:02.960Z,94.5
2023-09-23T03:01:09.452Z,93.5
2023-09-23T03:11:16.141Z,93
2023-09-23T03:21:22.643Z,93.5
2023-09-23T03:31:29.198Z,94
2023-09-23T03:41:35.740Z,95
2023-09-23T03:51:42.066Z,95
2023-09-23T04:01:48.767Z,95
2023-09-23T04:11:54.963Z,95.5
2023-09-23T04:22:01.619Z,96
2023-09-23T04:32:08.303Z,96
2023-09-23T04:42:14.927Z,96.5
2023-09-23T04:52:21.242Z,96.5
2023-09-23T05:02:27.642Z,96.5
2023-09-23T05:12:34.113Z,96.5
2023-09-23T05:22:40.793Z,96
2023-09-23T05:32:47.232Z,96
2023-09-23T05:42:53.961Z,95.5
2023-09-23T05:53:00.256Z,95
2023-09-23T06:03:06.772Z,95
2023-09-23T06:13:13.486Z,94.5
2023-09-23T06:23:19.849Z,94.5
2023-09-23T06:33:26.308Z,94.5
2023-09-23T06:43:33.498Z,93.5
2023-09-23T06:53:40.757Z,93
2023-09-23T07:03:48.129Z,92.5
2023-09-23T07:13:55.314Z,92
2023-09-23T07:24:02.360Z,91.5
2023-09-23T07:34:09.670Z,91.5
2023-09-23T07:44:16.780Z,91.5
2023-09-23T07:54:24.074Z,91.5
2023-09-23T08:04:31.179Z,91.5
2023-09-23T08:14:38.404Z,91
2023-09-23T08:24:45.465Z,90.5
2023-09-23T08:34:52.711Z,90.5
2023-09-23T08:44:59.822Z,89.5
2023-09-23T08:55:07.941Z,90
2023-09-23T09:05:16.343Z,89.5
2023-09-23T09:15:24.454Z,88
2023-09-23T09:25:32.861Z,87.5
2023-09-23T09:35:41.378Z,87
2023-09-23T09:45:49.460Z,86.5
2023-09-23T09:55:57.785Z,86.5
2023-09-23T10:06:05.046Z,85
2023-09-23T10:16:12.364Z,84
2023-09-23T10:26:19.426Z,83
2023-09-23T10:36:26.621Z,81
2023-09-23T10:46:33.790Z,80
2023-09-23T10:56:40.834Z,80.5
2023-09-23T11:06:47.864Z,77
2023-09-23T11:16:54.907Z,77
2023-09-23T11:27:02.409Z,78.5
2023-09-23T11:37:08.387Z,77.5
2023-09-23T11:47:14.919Z,76.5
2023-09-23T11:57:21.550Z,74
2023-09-23T12:07:28.086Z,74.5
2023-09-23T12:17:34.580Z,74
2023-09-23T12:27:40.918Z,74
2023-09-23T12:37:47.646Z,74
2023-09-23T12:47:54.095Z,72
2023-09-23T12:58:00.812Z,73
2023-09-23T13:08:07.220Z,73.5
2023-09-23T13:18:13.655Z,74
2023-09-23T13:28:20.241Z,77
2023-09-23T13:38:26.716Z,81.5
2023-09-23T13:48:33.298Z,81
2023-09-23T13:58:39.886Z,78
2023-09-23T14:08:46.477Z,75
2023-09-23T14:18:52.955Z,75
2023-09-23T14:28:59.480Z,77
2023-09-23T14:39:05.988Z,76
2023-09-23T14:49:12.387Z,75.5
2023-09-23T14:59:18.953Z,76
2023-09-23T15:09:24.612Z,75
2023-09-23T15:19:30.736Z,75
2023-09-23T15:29:37.076Z,76
2023-09-23T15:39:43.563Z,77
2023-09-23T15:49:49.712Z,77
2023-09-23T15:59:55.764Z,78
2023-09-23T16:10:02.035Z,78.5
2023-09-23T16:20:08.479Z,79
2023-09-23T16:30:14.630Z,79.5
2023-09-23T16:40:20.788Z,80
2023-09-23T16:50:27.055Z,80.5
2023-09-23T17:00:33.309Z,80.5
2023-09-23T17:10:39.580Z,81.5
2023-09-23T17:20:45.842Z,82
2023-09-23T17:30:52.070Z,83
2023-09-23T17:40:58.594Z,83.5
2023-09-23T17:51:04.724Z,84.5
2023-09-23T18:01:10.929Z,85
2023-09-23T18:11:17.133Z,85.5
2023-09-23T18:21:23.447Z,85.5
2023-09-23T18:31:29.610Z,85.5
2023-09-23T18:41:36.040Z,86
2023-09-23T18:51:42.150Z,86.5
2023-09-23T19:01:48.384Z,86.5
2023-09-23T19:11:54.647Z,87
2023-09-23T19:22:01.174Z,87
2023-09-23T19:32:07.881Z,87.5
2023-09-23T19:42:14.341Z,88
2023-09-23T19:52:20.941Z,88.5
2023-09-23T20:02:27.265Z,88.5
2023-09-23T20:12:33.842Z,89
2023-09-23T20:22:40.398Z,89
2023-09-23T20:32:46.897Z,89.5
2023-09-23T20:42:53.369Z,90
2023-09-23T20:52:59.886Z,90.5
2023-09-23T21:03:06.542Z,90.5
2023-09-23T21:13:13.159Z,91
2023-09-23T21:23:19.530Z,91
2023-09-23T21:33:26.647Z,91.5
2023-09-23T21:43:33.825Z,92
2023-09-23T21:53:41.097Z,92.5
2023-09-23T22:03:48.182Z,92
2023-09-23T22:13:55.476Z,92.5
2023-09-23T22:24:02.627Z,92.5
2023-09-23T22:34:09.812Z,93.5
2023-09-23T22:44:17.140Z,94.5
2023-09-23T22:54:24.148Z,94.5
2023-09-23T23:04:31.275Z,94.5
2023-09-23T23:14:38.586Z,95
2023-09-23T23:24:45.837Z,95.5
2023-09-23T23:34:52.841Z,96
2023-09-23T23:45:01.117Z,96
2023-09-23T23:55:09.543Z,96
